sensor_id;sensor_type;location;lat;lon;timestamp;P1;durP1;ratioP1;P2;durP2;ratioP2
4704;SDS011;2366;51.332;6.610;2024-03-08T00:00:26;26.47;;;18.20;;
4704;SDS011;2366;51.332;6.610;2024-03-08T00:02:52;24.80;;;16.60;;
4704;SDS011;2366;51.332;6.610;2024-03-08T00:05:19;30.92;;;18.50;;
4704;SDS011;2366;51.332;6.610;2024-03-08T00:07:45;24.30;;;17.75;;
4704;SDS011;2366;51.332;6.610;2024-03-08T00:10:12;25.48;;;18.33;;
4704;SDS011;2366;51.332;6.610;2024-03-08T00:12:42;24.58;;;18.35;;
4704;SDS011;2366;51.332;6.610;2024-03-08T00:15:13;24.35;;;18.33;;
4704;SDS011;2366;51.332;6.610;2024-03-08T00:17:40;23.35;;;17.73;;
4704;SDS011;2366;51.332;6.610;2024-03-08T00:20:06;27.27;;;18.02;;
4704;SDS011;2366;51.332;6.610;2024-03-08T00:22:35;27.02;;;19.40;;
4704;SDS011;2366;51.332;6.610;2024-03-08T00:25:01;28.95;;;18.95;;
4704;SDS011;2366;51.332;6.610;2024-03-08T00:27:27;27.50;;;17.45;;
4704;SDS011;2366;51.332;6.610;2024-03-08T00:29:57;23.88;;;18.23;;
4704;SDS011;2366;51.332;6.610;2024-03-08T00:32:22;25.13;;;18.52;;
4704;SDS011;2366;51.332;6.610;2024-03-08T00:34:52;26.05;;;18.70;;
4704;SDS011;2366;51.332;6.610;2024-03-08T00:37:19;25.67;;;19.30;;
4704;SDS011;2366;51.332;6.610;2024-03-08T00:39:45;29.33;;;20.33;;
4704;SDS011;2366;51.332;6.610;2024-03-08T00:42:10;26.97;;;19.33;;
4704;SDS011;2366;51.332;6.610;2024-03-08T00:44:35;24.00;;;17.50;;
4704;SDS011;2366;51.332;6.610;2024-03-08T00:47:01;29.87;;;19.90;;
4704;SDS011;2366;51.332;6.610;2024-03-08T00:49:27;27.00;;;19.07;;
4704;SDS011;2366;51.332;6.610;2024-03-08T00:51:52;26.70;;;18.87;;
4704;SDS011;2366;51.332;6.610;2024-03-08T00:54:18;26.97;;;20.60;;
4704;SDS011;2366;51.332;6.610;2024-03-08T00:56:43;25.43;;;18.90;;
4704;SDS011;2366;51.332;6.610;2024-03-08T00:59:10;30.65;;;18.58;;
4704;SDS011;2366;51.332;6.610;2024-03-08T01:01:36;33.17;;;19.63;;
4704;SDS011;2366;51.332;6.610;2024-03-08T01:04:01;28.30;;;19.57;;
4704;SDS011;2366;51.332;6.610;2024-03-08T01:06:27;23.93;;;18.67;;
4704;SDS011;2366;51.332;6.610;2024-03-08T01:08:52;24.30;;;18.93;;
4704;SDS011;2366;51.332;6.610;2024-03-08T01:11:18;27.45;;;19.20;;
4704;SDS011;2366;51.332;6.610;2024-03-08T01:13:44;27.90;;;19.87;;
4704;SDS011;2366;51.332;6.610;2024-03-08T01:16:12;25.27;;;19.20;;
4704;SDS011;2366;51.332;6.610;2024-03-08T01:18:38;26.97;;;19.23;;
4704;SDS011;2366;51.332;6.610;2024-03-08T01:21:03;29.00;;;20.50;;
4704;SDS011;2366;51.332;6.610;2024-03-08T01:23:29;28.70;;;20.20;;
4704;SDS011;2366;51.332;6.610;2024-03-08T01:25:54;31.53;;;21.13;;
4704;SDS011;2366;51.332;6.610;2024-03-08T01:28:25;24.52;;;20.33;;
4704;SDS011;2366;51.332;6.610;2024-03-08T01:30:51;39.80;;;22.10;;
4704;SDS011;2366;51.332;6.610;2024-03-08T01:33:24;36.42;;;21.60;;
4704;SDS011;2366;51.332;6.610;2024-03-08T01:35:51;31.42;;;20.45;;
4704;SDS011;2366;51.332;6.610;2024-03-08T01:38:17;32.10;;;21.88;;
4704;SDS011;2366;51.332;6.610;2024-03-08T01:40:43;31.63;;;21.00;;
4704;SDS011;2366;51.332;6.610;2024-03-08T01:45:45;31.48;;;21.88;;
4704;SDS011;2366;51.332;6.610;2024-03-08T01:48:11;34.10;;;20.60;;
4704;SDS011;2366;51.332;6.610;2024-03-08T01:50:37;32.10;;;21.30;;
4704;SDS011;2366;51.332;6.610;2024-03-08T01:53:04;32.97;;;21.50;;
4704;SDS011;2366;51.332;6.610;2024-03-08T01:55:31;34.80;;;22.00;;
4704;SDS011;2366;51.332;6.610;2024-03-08T01:57:57;35.90;;;21.60;;
4704;SDS011;2366;51.332;6.610;2024-03-08T02:00:24;33.83;;;20.40;;
4704;SDS011;2366;51.332;6.610;2024-03-08T02:02:51;35.38;;;20.90;;
4704;SDS011;2366;51.332;6.610;2024-03-08T02:05:19;33.30;;;22.95;;
4704;SDS011;2366;51.332;6.610;2024-03-08T02:07:46;35.33;;;22.45;;
4704;SDS011;2366;51.332;6.610;2024-03-08T02:10:11;29.20;;;21.10;;
4704;SDS011;2366;51.332;6.610;2024-03-08T02:12:37;44.90;;;24.25;;
4704;SDS011;2366;51.332;6.610;2024-03-08T02:15:04;32.17;;;22.08;;
4704;SDS011;2366;51.332;6.610;2024-03-08T02:17:31;30.08;;;20.75;;
4704;SDS011;2366;51.332;6.610;2024-03-08T02:19:58;34.20;;;21.63;;
4704;SDS011;2366;51.332;6.610;2024-03-08T02:22:26;34.08;;;19.23;;
4704;SDS011;2366;51.332;6.610;2024-03-08T02:24:52;31.20;;;21.43;;
4704;SDS011;2366;51.332;6.610;2024-03-08T02:27:23;31.90;;;21.13;;
4704;SDS011;2366;51.332;6.610;2024-03-08T02:29:49;33.30;;;22.55;;
4704;SDS011;2366;51.332;6.610;2024-03-08T02:32:15;32.43;;;20.23;;
4704;SDS011;2366;51.332;6.610;2024-03-08T02:34:40;33.50;;;20.13;;
4704;SDS011;2366;51.332;6.610;2024-03-08T02:37:06;34.43;;;21.60;;
4704;SDS011;2366;51.332;6.610;2024-03-08T02:39:31;36.03;;;22.43;;
4704;SDS011;2366;51.332;6.610;2024-03-08T02:41:57;33.90;;;23.37;;
4704;SDS011;2366;51.332;6.610;2024-03-08T02:44:23;37.90;;;22.48;;
4704;SDS011;2366;51.332;6.610;2024-03-08T02:46:49;32.50;;;21.53;;
4704;SDS011;2366;51.332;6.610;2024-03-08T02:49:15;32.67;;;22.33;;
4704;SDS011;2366;51.332;6.610;2024-03-08T02:51:41;36.25;;;22.95;;
4704;SDS011;2366;51.332;6.610;2024-03-08T02:54:06;35.90;;;21.80;;
4704;SDS011;2366;51.332;6.610;2024-03-08T02:56:33;35.85;;;23.55;;
4704;SDS011;2366;51.332;6.610;2024-03-08T02:59:00;31.38;;;22.95;;
4704;SDS011;2366;51.332;6.610;2024-03-08T03:01:25;32.43;;;23.30;;
4704;SDS011;2366;51.332;6.610;2024-03-08T03:03:51;35.00;;;25.03;;
4704;SDS011;2366;51.332;6.610;2024-03-08T03:06:17;34.23;;;23.77;;
4704;SDS011;2366;51.332;6.610;2024-03-08T03:08:46;33.78;;;23.23;;
4704;SDS011;2366;51.332;6.610;2024-03-08T03:11:11;35.93;;;23.10;;
4704;SDS011;2366;51.332;6.610;2024-03-08T03:13:38;36.85;;;23.80;;
4704;SDS011;2366;51.332;6.610;2024-03-08T03:16:07;35.50;;;24.13;;
4704;SDS011;2366;51.332;6.610;2024-03-08T03:18:32;35.40;;;23.73;;
4704;SDS011;2366;51.332;6.610;2024-03-08T03:20:58;32.33;;;21.70;;
4704;SDS011;2366;51.332;6.610;2024-03-08T03:23:23;32.37;;;23.70;;
4704;SDS011;2366;51.332;6.610;2024-03-08T03:25:51;50.58;;;24.05;;
4704;SDS011;2366;51.332;6.610;2024-03-08T03:28:17;32.63;;;23.60;;
4704;SDS011;2366;51.332;6.610;2024-03-08T03:30:46;32.10;;;23.50;;
4704;SDS011;2366;51.332;6.610;2024-03-08T03:33:12;33.40;;;23.40;;
4704;SDS011;2366;51.332;6.610;2024-03-08T03:35:39;33.50;;;23.35;;
4704;SDS011;2366;51.332;6.610;2024-03-08T03:38:06;37.83;;;24.02;;
4704;SDS011;2366;51.332;6.610;2024-03-08T03:40:32;40.90;;;24.67;;
4704;SDS011;2366;51.332;6.610;2024-03-08T03:42:58;35.90;;;24.60;;
4704;SDS011;2366;51.332;6.610;2024-03-08T03:45:24;31.83;;;23.37;;
4704;SDS011;2366;51.332;6.610;2024-03-08T03:47:50;40.50;;;25.07;;
4704;SDS011;2366;51.332;6.610;2024-03-08T03:50:16;37.15;;;24.73;;
4704;SDS011;2366;51.332;6.610;2024-03-08T03:52:44;43.85;;;26.65;;
4704;SDS011;2366;51.332;6.610;2024-03-08T03:55:10;38.67;;;26.20;;
4704;SDS011;2366;51.332;6.610;2024-03-08T03:57:37;36.53;;;24.92;;
4704;SDS011;2366;51.332;6.610;2024-03-08T04:00:03;42.53;;;25.50;;
4704;SDS011;2366;51.332;6.610;2024-03-08T04:02:29;48.38;;;25.80;;
4704;SDS011;2366;51.332;6.610;2024-03-08T04:04:55;35.50;;;25.47;;
4704;SDS011;2366;51.332;6.610;2024-03-08T04:07:20;44.07;;;26.40;;
4704;SDS011;2366;51.332;6.610;2024-03-08T04:09:46;35.50;;;23.90;;
4704;SDS011;2366;51.332;6.610;2024-03-08T04:12:11;35.97;;;22.47;;
4704;SDS011;2366;51.332;6.610;2024-03-08T04:14:38;37.30;;;25.20;;
4704;SDS011;2366;51.332;6.610;2024-03-08T04:17:06;35.38;;;25.23;;
4704;SDS011;2366;51.332;6.610;2024-03-08T04:19:33;45.92;;;26.77;;
4704;SDS011;2366;51.332;6.610;2024-03-08T04:21:59;34.90;;;24.70;;
4704;SDS011;2366;51.332;6.610;2024-03-08T04:24:26;38.40;;;25.48;;
4704;SDS011;2366;51.332;6.610;2024-03-08T04:26:51;38.40;;;26.17;;
4704;SDS011;2366;51.332;6.610;2024-03-08T04:29:18;36.72;;;25.77;;
4704;SDS011;2366;51.332;6.610;2024-03-08T04:31:43;38.13;;;25.07;;
4704;SDS011;2366;51.332;6.610;2024-03-08T04:34:11;42.60;;;24.90;;
4704;SDS011;2366;51.332;6.610;2024-03-08T04:36:37;39.03;;;24.93;;
4704;SDS011;2366;51.332;6.610;2024-03-08T04:39:02;39.30;;;25.77;;
4704;SDS011;2366;51.332;6.610;2024-03-08T04:41:28;43.63;;;25.17;;
4704;SDS011;2366;51.332;6.610;2024-03-08T04:43:55;40.42;;;24.60;;
4704;SDS011;2366;51.332;6.610;2024-03-08T04:46:22;39.30;;;25.85;;
4704;SDS011;2366;51.332;6.610;2024-03-08T04:48:48;41.75;;;26.27;;
4704;SDS011;2366;51.332;6.610;2024-03-08T04:51:14;39.10;;;25.40;;
4704;SDS011;2366;51.332;6.610;2024-03-08T04:53:40;37.83;;;24.98;;
4704;SDS011;2366;51.332;6.610;2024-03-08T04:56:06;38.83;;;25.93;;
4704;SDS011;2366;51.332;6.610;2024-03-08T04:58:32;46.55;;;28.00;;
4704;SDS011;2366;51.332;6.610;2024-03-08T05:01:00;37.40;;;22.77;;
4704;SDS011;2366;51.332;6.610;2024-03-08T05:03:26;42.80;;;26.05;;
4704;SDS011;2366;51.332;6.610;2024-03-08T05:05:52;41.73;;;27.00;;
4704;SDS011;2366;51.332;6.610;2024-03-08T05:08:18;44.75;;;25.73;;
4704;SDS011;2366;51.332;6.610;2024-03-08T05:10:44;48.47;;;27.88;;
4704;SDS011;2366;51.332;6.610;2024-03-08T05:13:11;50.00;;;30.50;;
4704;SDS011;2366;51.332;6.610;2024-03-08T05:15:38;44.33;;;27.90;;
4704;SDS011;2366;51.332;6.610;2024-03-08T05:18:05;50.05;;;29.77;;
4704;SDS011;2366;51.332;6.610;2024-03-08T05:20:31;48.28;;;32.13;;
4704;SDS011;2366;51.332;6.610;2024-03-08T05:22:56;59.33;;;31.47;;
4704;SDS011;2366;51.332;6.610;2024-03-08T05:25:25;50.30;;;29.08;;
4704;SDS011;2366;51.332;6.610;2024-03-08T05:27:51;49.35;;;31.30;;
4704;SDS011;2366;51.332;6.610;2024-03-08T05:30:17;44.77;;;30.27;;
4704;SDS011;2366;51.332;6.610;2024-03-08T05:32:42;54.57;;;30.03;;
4704;SDS011;2366;51.332;6.610;2024-03-08T05:35:11;45.75;;;29.42;;
4704;SDS011;2366;51.332;6.610;2024-03-08T05:37:37;43.47;;;28.05;;
4704;SDS011;2366;51.332;6.610;2024-03-08T05:40:04;51.72;;;31.75;;
4704;SDS011;2366;51.332;6.610;2024-03-08T05:42:34;56.30;;;31.52;;
4704;SDS011;2366;51.332;6.610;2024-03-08T05:45:00;51.17;;;30.63;;
4704;SDS011;2366;51.332;6.610;2024-03-08T05:47:25;64.87;;;31.50;;
4704;SDS011;2366;51.332;6.610;2024-03-08T05:49:51;51.97;;;28.50;;
4704;SDS011;2366;51.332;6.610;2024-03-08T05:52:18;55.28;;;30.88;;
4704;SDS011;2366;51.332;6.610;2024-03-08T05:54:44;48.63;;;30.47;;
4704;SDS011;2366;51.332;6.610;2024-03-08T05:57:10;47.85;;;29.38;;
4704;SDS011;2366;51.332;6.610;2024-03-08T05:59:36;44.90;;;29.07;;
4704;SDS011;2366;51.332;6.610;2024-03-08T06:02:01;50.10;;;29.70;;
4704;SDS011;2366;51.332;6.610;2024-03-08T06:04:28;48.72;;;29.60;;
4704;SDS011;2366;51.332;6.610;2024-03-08T06:06:54;50.20;;;29.30;;
4704;SDS011;2366;51.332;6.610;2024-03-08T06:09:22;51.05;;;30.02;;
4704;SDS011;2366;51.332;6.610;2024-03-08T06:11:48;45.90;;;28.35;;
4704;SDS011;2366;51.332;6.610;2024-03-08T06:14:14;50.10;;;29.27;;
4704;SDS011;2366;51.332;6.610;2024-03-08T06:16:44;54.85;;;27.73;;
4704;SDS011;2366;51.332;6.610;2024-03-08T06:19:09;45.85;;;30.30;;
4704;SDS011;2366;51.332;6.610;2024-03-08T06:21:35;53.27;;;28.83;;
4704;SDS011;2366;51.332;6.610;2024-03-08T06:24:01;48.93;;;29.60;;
4704;SDS011;2366;51.332;6.610;2024-03-08T06:26:26;49.30;;;30.03;;
4704;SDS011;2366;51.332;6.610;2024-03-08T06:28:55;46.28;;;28.40;;
4704;SDS011;2366;51.332;6.610;2024-03-08T06:31:21;45.93;;;29.77;;
4704;SDS011;2366;51.332;6.610;2024-03-08T06:33:47;45.83;;;29.17;;
4704;SDS011;2366;51.332;6.610;2024-03-08T06:36:17;46.30;;;26.80;;
4704;SDS011;2366;51.332;6.610;2024-03-08T06:38:47;42.47;;;28.38;;
4704;SDS011;2366;51.332;6.610;2024-03-08T06:41:12;37.70;;;26.10;;
4704;SDS011;2366;51.332;6.610;2024-03-08T06:43:41;41.88;;;24.90;;
4704;SDS011;2366;51.332;6.610;2024-03-08T06:46:07;38.15;;;25.65;;
4704;SDS011;2366;51.332;6.610;2024-03-08T06:48:33;44.20;;;27.15;;
4704;SDS011;2366;51.332;6.610;2024-03-08T06:51:00;42.55;;;28.33;;
4704;SDS011;2366;51.332;6.610;2024-03-08T06:53:25;49.50;;;27.73;;
4704;SDS011;2366;51.332;6.610;2024-03-08T06:55:50;43.27;;;26.50;;
4704;SDS011;2366;51.332;6.610;2024-03-08T06:58:16;43.10;;;27.33;;
4704;SDS011;2366;51.332;6.610;2024-03-08T07:00:41;38.90;;;26.20;;
4704;SDS011;2366;51.332;6.610;2024-03-08T07:03:07;43.90;;;29.40;;
4704;SDS011;2366;51.332;6.610;2024-03-08T07:05:37;40.70;;;26.58;;
4704;SDS011;2366;51.332;6.610;2024-03-08T07:08:02;38.60;;;24.63;;
4704;SDS011;2366;51.332;6.610;2024-03-08T07:10:28;40.00;;;27.83;;
4704;SDS011;2366;51.332;6.610;2024-03-08T07:12:54;38.13;;;26.77;;
4704;SDS011;2366;51.332;6.610;2024-03-08T07:15:19;34.17;;;25.60;;
4704;SDS011;2366;51.332;6.610;2024-03-08T07:17:45;34.93;;;25.03;;
4704;SDS011;2366;51.332;6.610;2024-03-08T07:20:11;32.67;;;24.95;;
4704;SDS011;2366;51.332;6.610;2024-03-08T07:22:38;35.83;;;24.80;;
4704;SDS011;2366;51.332;6.610;2024-03-08T07:25:07;33.30;;;26.80;;
4704;SDS011;2366;51.332;6.610;2024-03-08T07:27:33;35.03;;;24.40;;
4704;SDS011;2366;51.332;6.610;2024-03-08T07:30:01;33.42;;;24.13;;
4704;SDS011;2366;51.332;6.610;2024-03-08T07:32:27;31.08;;;24.25;;
4704;SDS011;2366;51.332;6.610;2024-03-08T07:34:55;34.40;;;25.13;;
4704;SDS011;2366;51.332;6.610;2024-03-08T07:37:21;31.67;;;24.30;;
4704;SDS011;2366;51.332;6.610;2024-03-08T07:39:46;34.10;;;23.60;;
4704;SDS011;2366;51.332;6.610;2024-03-08T07:42:12;31.57;;;23.53;;
4704;SDS011;2366;51.332;6.610;2024-03-08T07:44:37;31.27;;;24.00;;
4704;SDS011;2366;51.332;6.610;2024-03-08T07:47:03;28.10;;;22.93;;
4704;SDS011;2366;51.332;6.610;2024-03-08T07:49:29;28.40;;;23.40;;
4704;SDS011;2366;51.332;6.610;2024-03-08T07:54:26;27.57;;;22.43;;
4704;SDS011;2366;51.332;6.610;2024-03-08T07:56:52;26.00;;;22.73;;
4704;SDS011;2366;51.332;6.610;2024-03-08T07:59:17;27.27;;;22.10;;
4704;SDS011;2366;51.332;6.610;2024-03-08T08:01:43;37.60;;;23.47;;
4704;SDS011;2366;51.332;6.610;2024-03-08T08:04:09;27.93;;;21.40;;
4704;SDS011;2366;51.332;6.610;2024-03-08T08:06:38;26.13;;;22.37;;
4704;SDS011;2366;51.332;6.610;2024-03-08T08:09:05;27.10;;;22.93;;
4704;SDS011;2366;51.332;6.610;2024-03-08T08:11:34;28.10;;;23.43;;
4704;SDS011;2366;51.332;6.610;2024-03-08T08:14:00;27.27;;;23.50;;
4704;SDS011;2366;51.332;6.610;2024-03-08T08:16:25;27.07;;;21.60;;
4704;SDS011;2366;51.332;6.610;2024-03-08T08:18:51;30.90;;;22.10;;
4704;SDS011;2366;51.332;6.610;2024-03-08T08:21:17;23.77;;;21.33;;
4704;SDS011;2366;51.332;6.610;2024-03-08T08:23:43;33.73;;;22.10;;
4704;SDS011;2366;51.332;6.610;2024-03-08T08:26:09;22.93;;;20.53;;
4704;SDS011;2366;51.332;6.610;2024-03-08T08:28:36;26.50;;;19.37;;
4704;SDS011;2366;51.332;6.610;2024-03-08T08:31:01;21.20;;;19.00;;
4704;SDS011;2366;51.332;6.610;2024-03-08T08:33:29;22.23;;;19.00;;
4704;SDS011;2366;51.332;6.610;2024-03-08T08:35:54;21.77;;;19.47;;
4704;SDS011;2366;51.332;6.610;2024-03-08T08:38:20;25.23;;;18.40;;
4704;SDS011;2366;51.332;6.610;2024-03-08T08:40:46;22.27;;;19.43;;
4704;SDS011;2366;51.332;6.610;2024-03-08T08:43:12;22.43;;;19.87;;
4704;SDS011;2366;51.332;6.610;2024-03-08T08:45:39;21.00;;;17.97;;
4704;SDS011;2366;51.332;6.610;2024-03-08T08:48:04;20.93;;;17.50;;
4704;SDS011;2366;51.332;6.610;2024-03-08T08:50:30;19.13;;;17.20;;
4704;SDS011;2366;51.332;6.610;2024-03-08T08:52:56;21.27;;;17.33;;
4704;SDS011;2366;51.332;6.610;2024-03-08T08:55:22;19.80;;;17.07;;
4704;SDS011;2366;51.332;6.610;2024-03-08T08:57:50;19.43;;;15.60;;
4704;SDS011;2366;51.332;6.610;2024-03-08T09:00:21;21.63;;;18.00;;
4704;SDS011;2366;51.332;6.610;2024-03-08T09:02:48;24.17;;;15.80;;
4704;SDS011;2366;51.332;6.610;2024-03-08T09:05:16;17.90;;;16.00;;
4704;SDS011;2366;51.332;6.610;2024-03-08T09:07:42;17.93;;;15.77;;
4704;SDS011;2366;51.332;6.610;2024-03-08T09:10:09;21.10;;;17.10;;
4704;SDS011;2366;51.332;6.610;2024-03-08T09:12:34;20.07;;;15.90;;
4704;SDS011;2366;51.332;6.610;2024-03-08T09:15:00;20.67;;;17.90;;
4704;SDS011;2366;51.332;6.610;2024-03-08T09:17:25;19.10;;;15.70;;
4704;SDS011;2366;51.332;6.610;2024-03-08T09:19:51;18.50;;;16.60;;
4704;SDS011;2366;51.332;6.610;2024-03-08T09:22:17;22.10;;;15.00;;
4704;SDS011;2366;51.332;6.610;2024-03-08T09:24:43;18.37;;;16.47;;
4704;SDS011;2366;51.332;6.610;2024-03-08T09:27:08;16.03;;;14.30;;
4704;SDS011;2366;51.332;6.610;2024-03-08T09:29:35;25.70;;;15.63;;
4704;SDS011;2366;51.332;6.610;2024-03-08T09:32:00;18.57;;;15.07;;
4704;SDS011;2366;51.332;6.610;2024-03-08T09:34:26;16.33;;;13.93;;
4704;SDS011;2366;51.332;6.610;2024-03-08T09:36:51;15.20;;;13.17;;
4704;SDS011;2366;51.332;6.610;2024-03-08T09:39:17;19.10;;;14.33;;
4704;SDS011;2366;51.332;6.610;2024-03-08T09:41:45;15.47;;;13.13;;
4704;SDS011;2366;51.332;6.610;2024-03-08T09:44:14;15.37;;;13.23;;
4704;SDS011;2366;51.332;6.610;2024-03-08T09:46:40;15.40;;;12.70;;
4704;SDS011;2366;51.332;6.610;2024-03-08T09:49:06;13.63;;;12.23;;
4704;SDS011;2366;51.332;6.610;2024-03-08T09:51:33;15.20;;;13.07;;
4704;SDS011;2366;51.332;6.610;2024-03-08T09:54:04;16.02;;;14.10;;
4704;SDS011;2366;51.332;6.610;2024-03-08T09:56:31;19.20;;;15.70;;
4704;SDS011;2366;51.332;6.610;2024-03-08T09:58:58;17.70;;;14.10;;
4704;SDS011;2366;51.332;6.610;2024-03-08T10:01:42;21.60;;;14.60;;
4704;SDS011;2366;51.332;6.610;2024-03-08T10:04:09;19.27;;;15.35;;
4704;SDS011;2366;51.332;6.610;2024-03-08T10:06:35;18.10;;;12.77;;
4704;SDS011;2366;51.332;6.610;2024-03-08T10:09:01;20.27;;;13.43;;
4704;SDS011;2366;51.332;6.610;2024-03-08T10:11:27;19.50;;;14.40;;
4704;SDS011;2366;51.332;6.610;2024-03-08T10:13:52;20.20;;;13.03;;
4704;SDS011;2366;51.332;6.610;2024-03-08T10:16:18;25.97;;;13.50;;
4704;SDS011;2366;51.332;6.610;2024-03-08T10:18:44;20.30;;;14.13;;
4704;SDS011;2366;51.332;6.610;2024-03-08T10:21:10;19.13;;;13.40;;
4704;SDS011;2366;51.332;6.610;2024-03-08T10:23:36;17.80;;;13.03;;
4704;SDS011;2366;51.332;6.610;2024-03-08T10:26:12;20.30;;;13.37;;
4704;SDS011;2366;51.332;6.610;2024-03-08T10:28:44;16.48;;;13.70;;
4704;SDS011;2366;51.332;6.610;2024-03-08T10:31:12;18.05;;;13.52;;
4704;SDS011;2366;51.332;6.610;2024-03-08T10:33:40;18.65;;;13.88;;
4704;SDS011;2366;51.332;6.610;2024-03-08T10:36:09;15.70;;;12.95;;
4704;SDS011;2366;51.332;6.610;2024-03-08T10:38:39;20.52;;;15.90;;
4704;SDS011;2366;51.332;6.610;2024-03-08T10:41:06;18.08;;;13.25;;
4704;SDS011;2366;51.332;6.610;2024-03-08T10:48:53;15.45;;;12.00;;
4704;SDS011;2366;51.332;6.610;2024-03-08T10:51:23;16.00;;;12.15;;
4704;SDS011;2366;51.332;6.610;2024-03-08T10:53:50;17.13;;;12.05;;
4704;SDS011;2366;51.332;6.610;2024-03-08T10:56:17;14.30;;;11.50;;
4704;SDS011;2366;51.332;6.610;2024-03-08T10:58:42;12.70;;;10.33;;
4704;SDS011;2366;51.332;6.610;2024-03-08T11:01:09;14.95;;;11.80;;
4704;SDS011;2366;51.332;6.610;2024-03-08T11:03:46;15.40;;;11.43;;
4704;SDS011;2366;51.332;6.610;2024-03-08T11:08:42;17.65;;;11.77;;
4704;SDS011;2366;51.332;6.610;2024-03-08T11:13:57;18.02;;;11.80;;
4704;SDS011;2366;51.332;6.610;2024-03-08T11:18:54;14.20;;;10.65;;
4704;SDS011;2366;51.332;6.610;2024-03-08T11:21:25;15.32;;;11.00;;
4704;SDS011;2366;51.332;6.610;2024-03-08T11:24:01;13.68;;;10.65;;
4704;SDS011;2366;51.332;6.610;2024-03-08T11:26:30;17.33;;;11.38;;
4704;SDS011;2366;51.332;6.610;2024-03-08T11:29:25;17.33;;;11.70;;
4704;SDS011;2366;51.332;6.610;2024-03-08T11:34:53;13.45;;;10.30;;
4704;SDS011;2366;51.332;6.610;2024-03-08T11:37:20;11.60;;;10.33;;
4704;SDS011;2366;51.332;6.610;2024-03-08T11:42:24;16.02;;;11.90;;
4704;SDS011;2366;51.332;6.610;2024-03-08T11:44:51;18.15;;;11.23;;
4704;SDS011;2366;51.332;6.610;2024-03-08T11:47:17;14.20;;;10.60;;
4704;SDS011;2366;51.332;6.610;2024-03-08T11:49:43;18.10;;;9.83;;
4704;SDS011;2366;51.332;6.610;2024-03-08T11:52:16;13.52;;;10.60;;
4704;SDS011;2366;51.332;6.610;2024-03-08T11:54:47;18.90;;;10.55;;
4704;SDS011;2366;51.332;6.610;2024-03-08T11:57:19;12.85;;;10.57;;
4704;SDS011;2366;51.332;6.610;2024-03-08T11:59:51;14.20;;;10.40;;
4704;SDS011;2366;51.332;6.610;2024-03-08T12:02:17;16.73;;;11.00;;
4704;SDS011;2366;51.332;6.610;2024-03-08T12:04:44;11.20;;;9.55;;
4704;SDS011;2366;51.332;6.610;2024-03-08T12:07:11;15.23;;;12.38;;
4704;SDS011;2366;51.332;6.610;2024-03-08T12:09:43;11.40;;;9.88;;
4704;SDS011;2366;51.332;6.610;2024-03-08T12:12:11;16.40;;;11.15;;
4704;SDS011;2366;51.332;6.610;2024-03-08T12:14:37;13.97;;;10.70;;
4704;SDS011;2366;51.332;6.610;2024-03-08T12:17:03;12.05;;;10.23;;
4704;SDS011;2366;51.332;6.610;2024-03-08T12:19:31;14.50;;;10.00;;
4704;SDS011;2366;51.332;6.610;2024-03-08T12:21:56;16.67;;;10.70;;
4704;SDS011;2366;51.332;6.610;2024-03-08T12:24:22;15.40;;;11.33;;
4704;SDS011;2366;51.332;6.610;2024-03-08T12:26:48;10.85;;;9.70;;
4704;SDS011;2366;51.332;6.610;2024-03-08T12:29:26;13.33;;;9.90;;
4704;SDS011;2366;51.332;6.610;2024-03-08T12:31:53;12.98;;;10.13;;
4704;SDS011;2366;51.332;6.610;2024-03-08T12:34:20;12.57;;;9.77;;
4704;SDS011;2366;51.332;6.610;2024-03-08T12:36:49;12.93;;;9.80;;
4704;SDS011;2366;51.332;6.610;2024-03-08T12:39:19;10.50;;;9.35;;
4704;SDS011;2366;51.332;6.610;2024-03-08T12:41:55;17.08;;;10.82;;
4704;SDS011;2366;51.332;6.610;2024-03-08T12:44:22;11.50;;;9.52;;
4704;SDS011;2366;51.332;6.610;2024-03-08T12:46:48;12.87;;;10.53;;
4704;SDS011;2366;51.332;6.610;2024-03-08T12:49:14;14.48;;;10.10;;
4704;SDS011;2366;51.332;6.610;2024-03-08T12:51:45;12.77;;;9.90;;
4704;SDS011;2366;51.332;6.610;2024-03-08T12:54:11;12.65;;;10.10;;
4704;SDS011;2366;51.332;6.610;2024-03-08T12:56:37;13.27;;;9.63;;
4704;SDS011;2366;51.332;6.610;2024-03-08T12:59:03;13.77;;;10.10;;
4704;SDS011;2366;51.332;6.610;2024-03-08T13:01:33;13.63;;;10.32;;
4704;SDS011;2366;51.332;6.610;2024-03-08T13:03:59;12.70;;;9.70;;
4704;SDS011;2366;51.332;6.610;2024-03-08T13:06:27;9.93;;;8.73;;
4704;SDS011;2366;51.332;6.610;2024-03-08T13:08:53;12.07;;;9.65;;
4704;SDS011;2366;51.332;6.610;2024-03-08T13:11:20;13.38;;;9.98;;
4704;SDS011;2366;51.332;6.610;2024-03-08T13:13:46;13.77;;;9.70;;
4704;SDS011;2366;51.332;6.610;2024-03-08T13:16:12;11.07;;;9.47;;
4704;SDS011;2366;51.332;6.610;2024-03-08T13:18:40;16.00;;;10.15;;
4704;SDS011;2366;51.332;6.610;2024-03-08T13:21:09;17.00;;;10.60;;
4704;SDS011;2366;51.332;6.610;2024-03-08T13:23:36;14.00;;;10.68;;
4704;SDS011;2366;51.332;6.610;2024-03-08T13:26:08;11.70;;;9.73;;
4704;SDS011;2366;51.332;6.610;2024-03-08T13:28:35;11.13;;;9.60;;
4704;SDS011;2366;51.332;6.610;2024-03-08T13:31:06;13.43;;;9.15;;
4704;SDS011;2366;51.332;6.610;2024-03-08T13:33:35;13.83;;;9.70;;
4704;SDS011;2366;51.332;6.610;2024-03-08T13:36:04;13.57;;;10.50;;
4704;SDS011;2366;51.332;6.610;2024-03-08T13:38:31;12.77;;;9.75;;
4704;SDS011;2366;51.332;6.610;2024-03-08T13:41:01;13.43;;;10.00;;
4704;SDS011;2366;51.332;6.610;2024-03-08T13:43:27;13.18;;;10.18;;
4704;SDS011;2366;51.332;6.610;2024-03-08T13:45:53;15.80;;;10.07;;
4704;SDS011;2366;51.332;6.610;2024-03-08T13:48:19;13.02;;;9.13;;
4704;SDS011;2366;51.332;6.610;2024-03-08T13:50:47;11.88;;;9.93;;
4704;SDS011;2366;51.332;6.610;2024-03-08T13:53:13;15.63;;;10.38;;
4704;SDS011;2366;51.332;6.610;2024-03-08T13:55:40;13.70;;;10.00;;
4704;SDS011;2366;51.332;6.610;2024-03-08T13:58:05;10.13;;;8.73;;
4704;SDS011;2366;51.332;6.610;2024-03-08T14:00:34;13.63;;;9.18;;
4704;SDS011;2366;51.332;6.610;2024-03-08T14:03:01;12.32;;;8.75;;
4704;SDS011;2366;51.332;6.610;2024-03-08T14:05:30;11.40;;;9.60;;
4704;SDS011;2366;51.332;6.610;2024-03-08T14:07:59;12.57;;;10.02;;
4704;SDS011;2366;51.332;6.610;2024-03-08T14:10:28;13.52;;;9.98;;
4704;SDS011;2366;51.332;6.610;2024-03-08T14:12:56;10.10;;;8.75;;
4704;SDS011;2366;51.332;6.610;2024-03-08T14:15:25;14.88;;;9.30;;
4704;SDS011;2366;51.332;6.610;2024-03-08T14:17:53;16.07;;;8.27;;
4704;SDS011;2366;51.332;6.610;2024-03-08T14:20:20;12.40;;;9.60;;
4704;SDS011;2366;51.332;6.610;2024-03-08T14:22:50;9.55;;;8.35;;
4704;SDS011;2366;51.332;6.610;2024-03-08T14:25:19;12.15;;;9.48;;
4704;SDS011;2366;51.332;6.610;2024-03-08T14:27:45;11.00;;;8.73;;
4704;SDS011;2366;51.332;6.610;2024-03-08T14:30:12;11.00;;;8.75;;
4704;SDS011;2366;51.332;6.610;2024-03-08T14:32:37;11.70;;;9.23;;
4704;SDS011;2366;51.332;6.610;2024-03-08T14:35:04;12.48;;;8.85;;
4704;SDS011;2366;51.332;6.610;2024-03-08T14:37:30;13.57;;;9.43;;
4704;SDS011;2366;51.332;6.610;2024-03-08T14:39:56;10.37;;;8.90;;
4704;SDS011;2366;51.332;6.610;2024-03-08T14:42:21;11.77;;;9.47;;
4704;SDS011;2366;51.332;6.610;2024-03-08T14:44:47;12.40;;;9.23;;
4704;SDS011;2366;51.332;6.610;2024-03-08T14:47:16;12.25;;;8.63;;
4704;SDS011;2366;51.332;6.610;2024-03-08T14:49:42;13.60;;;9.88;;
4704;SDS011;2366;51.332;6.610;2024-03-08T14:52:07;14.63;;;11.60;;
4704;SDS011;2366;51.332;6.610;2024-03-08T14:54:52;11.73;;;9.77;;
4704;SDS011;2366;51.332;6.610;2024-03-08T14:57:21;22.55;;;11.13;;
4704;SDS011;2366;51.332;6.610;2024-03-08T14:59:47;14.97;;;9.40;;
4704;SDS011;2366;51.332;6.610;2024-03-08T15:02:12;14.40;;;10.43;;
4704;SDS011;2366;51.332;6.610;2024-03-08T15:04:37;14.13;;;10.00;;
4704;SDS011;2366;51.332;6.610;2024-03-08T15:07:06;20.27;;;10.40;;
4704;SDS011;2366;51.332;6.610;2024-03-08T15:09:34;14.60;;;10.60;;
4704;SDS011;2366;51.332;6.610;2024-03-08T15:12:05;13.13;;;10.68;;